sensor_id;sensor_type;location;lat;lon;timestamp;P1;durP1;ratioP1;P2;durP2;ratioP2
67556;SDS011;54387;53.526;49.300;2022-07-18T00:01:43;7.45;;;5.78;;
67556;SDS011;54387;53.526;49.300;2022-07-18T00:04:10;7.60;;;5.38;;
67556;SDS011;54387;53.526;49.300;2022-07-18T00:06:36;8.63;;;5.75;;
67556;SDS011;54387;53.526;49.300;2022-07-18T00:09:03;8.52;;;5.10;;
67556;SDS011;54387;53.526;49.300;2022-07-18T00:11:29;6.95;;;5.20;;
67556;SDS011;54387;53.526;49.300;2022-07-18T00:13:55;7.03;;;5.40;;
67556;SDS011;54387;53.526;49.300;2022-07-18T00:16:22;6.35;;;5.25;;
67556;SDS011;54387;53.526;49.300;2022-07-18T00:18:49;6.57;;;5.05;;
67556;SDS011;54387;53.526;49.300;2022-07-18T00:21:15;10.02;;;4.90;;
67556;SDS011;54387;53.526;49.300;2022-07-18T00:23:42;6.32;;;5.20;;
67556;SDS011;54387;53.526;49.300;2022-07-18T00:26:08;6.15;;;5.55;;
67556;SDS011;54387;53.526;49.300;2022-07-18T00:28:34;7.50;;;4.93;;
67556;SDS011;54387;53.526;49.300;2022-07-18T00:31:00;10.77;;;5.53;;
67556;SDS011;54387;53.526;49.300;2022-07-18T00:33:27;5.38;;;4.82;;
67556;SDS011;54387;53.526;49.300;2022-07-18T00:35:53;6.85;;;5.28;;
67556;SDS011;54387;53.526;49.300;2022-07-18T00:38:19;6.43;;;5.15;;
67556;SDS011;54387;53.526;49.300;2022-07-18T00:40:45;8.00;;;5.25;;
67556;SDS011;54387;53.526;49.300;2022-07-18T00:43:12;7.30;;;5.10;;
67556;SDS011;54387;53.526;49.300;2022-07-18T00:45:39;8.27;;;5.97;;
67556;SDS011;54387;53.526;49.300;2022-07-18T00:48:10;7.35;;;4.88;;
67556;SDS011;54387;53.526;49.300;2022-07-18T00:50:36;6.18;;;5.53;;
67556;SDS011;54387;53.526;49.300;2022-07-18T00:53:02;5.88;;;5.20;;
67556;SDS011;54387;53.526;49.300;2022-07-18T00:55:30;6.72;;;5.50;;
67556;SDS011;54387;53.526;49.300;2022-07-18T00:57:56;6.45;;;5.25;;
67556;SDS011;54387;53.526;49.300;2022-07-18T01:00:23;6.75;;;5.22;;
67556;SDS011;54387;53.526;49.300;2022-07-18T01:03:08;6.72;;;5.60;;
67556;SDS011;54387;53.526;49.300;2022-07-18T01:05:35;7.43;;;5.43;;
67556;SDS011;54387;53.526;49.300;2022-07-18T01:08:01;8.07;;;5.72;;
67556;SDS011;54387;53.526;49.300;2022-07-18T01:10:27;6.60;;;5.30;;
67556;SDS011;54387;53.526;49.300;2022-07-18T01:12:54;11.93;;;5.85;;
67556;SDS011;54387;53.526;49.300;2022-07-18T01:15:20;6.65;;;5.40;;
67556;SDS011;54387;53.526;49.300;2022-07-18T01:17:46;6.45;;;5.35;;
67556;SDS011;54387;53.526;49.300;2022-07-18T01:20:12;7.20;;;5.45;;
67556;SDS011;54387;53.526;49.300;2022-07-18T01:22:38;9.15;;;5.30;;
67556;SDS011;54387;53.526;49.300;2022-07-18T01:25:06;5.97;;;5.40;;
67556;SDS011;54387;53.526;49.300;2022-07-18T01:27:36;8.40;;;5.35;;
67556;SDS011;54387;53.526;49.300;2022-07-18T01:30:04;8.43;;;5.60;;
67556;SDS011;54387;53.526;49.300;2022-07-18T01:32:31;6.70;;;4.95;;
67556;SDS011;54387;53.526;49.300;2022-07-18T01:34:58;7.13;;;4.85;;
67556;SDS011;54387;53.526;49.300;2022-07-18T01:37:24;9.38;;;5.22;;
67556;SDS011;54387;53.526;49.300;2022-07-18T01:39:50;5.95;;;4.75;;
67556;SDS011;54387;53.526;49.300;2022-07-18T01:42:16;8.70;;;4.78;;
67556;SDS011;54387;53.526;49.300;2022-07-18T01:44:43;6.15;;;4.68;;
67556;SDS011;54387;53.526;49.300;2022-07-18T01:47:10;5.35;;;3.90;;
67556;SDS011;54387;53.526;49.300;2022-07-18T01:49:37;6.40;;;4.32;;
67556;SDS011;54387;53.526;49.300;2022-07-18T01:52:04;6.72;;;5.00;;
67556;SDS011;54387;53.526;49.300;2022-07-18T01:54:32;5.05;;;4.53;;
67556;SDS011;54387;53.526;49.300;2022-07-18T01:56:59;6.40;;;4.80;;
67556;SDS011;54387;53.526;49.300;2022-07-18T01:59:27;6.68;;;4.13;;
67556;SDS011;54387;53.526;49.300;2022-07-18T02:01:54;5.20;;;4.43;;
67556;SDS011;54387;53.526;49.300;2022-07-18T02:04:20;5.85;;;4.80;;
67556;SDS011;54387;53.526;49.300;2022-07-18T02:07:06;6.65;;;4.63;;
67556;SDS011;54387;53.526;49.300;2022-07-18T02:09:32;7.50;;;4.93;;
67556;SDS011;54387;53.526;49.300;2022-07-18T02:11:59;9.48;;;4.90;;
67556;SDS011;54387;53.526;49.300;2022-07-18T02:14:25;11.52;;;5.20;;
67556;SDS011;54387;53.526;49.300;2022-07-18T02:16:51;6.18;;;4.82;;
67556;SDS011;54387;53.526;49.300;2022-07-18T02:19:17;6.63;;;4.95;;
67556;SDS011;54387;53.526;49.300;2022-07-18T02:21:43;7.22;;;4.90;;
67556;SDS011;54387;53.526;49.300;2022-07-18T02:24:09;5.82;;;4.88;;
67556;SDS011;54387;53.526;49.300;2022-07-18T02:26:35;7.63;;;4.90;;
67556;SDS011;54387;53.526;49.300;2022-07-18T02:29:02;6.18;;;4.85;;
67556;SDS011;54387;53.526;49.300;2022-07-18T02:31:28;7.55;;;4.38;;
67556;SDS011;54387;53.526;49.300;2022-07-18T02:33:54;6.32;;;4.50;;
67556;SDS011;54387;53.526;49.300;2022-07-18T02:36:20;5.60;;;4.20;;
67556;SDS011;54387;53.526;49.300;2022-07-18T02:38:46;6.60;;;4.40;;
67556;SDS011;54387;53.526;49.300;2022-07-18T02:41:12;7.07;;;4.97;;
67556;SDS011;54387;53.526;49.300;2022-07-18T02:43:38;5.35;;;4.80;;
67556;SDS011;54387;53.526;49.300;2022-07-18T02:46:05;7.57;;;5.18;;
67556;SDS011;54387;53.526;49.300;2022-07-18T02:48:31;9.30;;;4.75;;
67556;SDS011;54387;53.526;49.300;2022-07-18T02:50:57;7.80;;;5.40;;
67556;SDS011;54387;53.526;49.300;2022-07-18T02:53:23;5.47;;;4.80;;
67556;SDS011;54387;53.526;49.300;2022-07-18T02:55:50;5.97;;;5.22;;
67556;SDS011;54387;53.526;49.300;2022-07-18T02:58:16;15.15;;;5.45;;
67556;SDS011;54387;53.526;49.300;2022-07-18T03:00:43;8.82;;;5.63;;
67556;SDS011;54387;53.526;49.300;2022-07-18T03:03:09;8.93;;;4.88;;
67556;SDS011;54387;53.526;49.300;2022-07-18T03:05:35;10.02;;;4.82;;
67556;SDS011;54387;53.526;49.300;2022-07-18T03:08:02;9.25;;;4.43;;
67556;SDS011;54387;53.526;49.300;2022-07-18T03:10:28;11.52;;;4.93;;
67556;SDS011;54387;53.526;49.300;2022-07-18T03:12:54;10.43;;;5.45;;
67556;SDS011;54387;53.526;49.300;2022-07-18T03:15:20;5.32;;;4.03;;
67556;SDS011;54387;53.526;49.300;2022-07-18T03:17:47;4.97;;;4.40;;
67556;SDS011;54387;53.526;49.300;2022-07-18T03:20:13;7.78;;;4.32;;
67556;SDS011;54387;53.526;49.300;2022-07-18T03:22:39;7.88;;;3.72;;
67556;SDS011;54387;53.526;49.300;2022-07-18T03:25:05;5.13;;;3.80;;
67556;SDS011;54387;53.526;49.300;2022-07-18T03:27:32;5.38;;;3.47;;
67556;SDS011;54387;53.526;49.300;2022-07-18T03:29:58;5.82;;;3.70;;
67556;SDS011;54387;53.526;49.300;2022-07-18T03:32:24;11.65;;;4.25;;
67556;SDS011;54387;53.526;49.300;2022-07-18T03:34:50;12.52;;;4.10;;
67556;SDS011;54387;53.526;49.300;2022-07-18T03:37:17;7.65;;;3.55;;
67556;SDS011;54387;53.526;49.300;2022-07-18T03:39:43;5.07;;;3.70;;
67556;SDS011;54387;53.526;49.300;2022-07-18T03:42:09;5.07;;;4.20;;
67556;SDS011;54387;53.526;49.300;2022-07-18T03:44:35;8.93;;;4.03;;
67556;SDS011;54387;53.526;49.300;2022-07-18T03:47:01;6.57;;;4.05;;
67556;SDS011;54387;53.526;49.300;2022-07-18T03:49:28;4.70;;;3.08;;
67556;SDS011;54387;53.526;49.300;2022-07-18T03:51:54;6.28;;;3.28;;
67556;SDS011;54387;53.526;49.300;2022-07-18T03:54:21;4.85;;;3.30;;
67556;SDS011;54387;53.526;49.300;2022-07-18T03:56:49;5.20;;;3.47;;
67556;SDS011;54387;53.526;49.300;2022-07-18T03:59:15;5.93;;;3.13;;
67556;SDS011;54387;53.526;49.300;2022-07-18T04:01:41;3.88;;;2.95;;
67556;SDS011;54387;53.526;49.300;2022-07-18T04:04:07;7.20;;;3.13;;
67556;SDS011;54387;53.526;49.300;2022-07-18T04:06:34;4.95;;;2.95;;
67556;SDS011;54387;53.526;49.300;2022-07-18T04:09:00;8.50;;;3.03;;
67556;SDS011;54387;53.526;49.300;2022-07-18T04:11:26;5.97;;;3.22;;
67556;SDS011;54387;53.526;49.300;2022-07-18T04:13:52;3.88;;;3.13;;
67556;SDS011;54387;53.526;49.300;2022-07-18T04:16:19;4.28;;;3.03;;
67556;SDS011;54387;53.526;49.300;2022-07-18T04:18:46;7.80;;;3.22;;
67556;SDS011;54387;53.526;49.300;2022-07-18T04:21:12;3.88;;;3.03;;
67556;SDS011;54387;53.526;49.300;2022-07-18T04:23:39;2.92;;;2.60;;
67556;SDS011;54387;53.526;49.300;2022-07-18T04:26:06;5.50;;;3.10;;
67556;SDS011;54387;53.526;49.300;2022-07-18T04:28:32;5.18;;;3.10;;
67556;SDS011;54387;53.526;49.300;2022-07-18T04:30:58;5.30;;;3.00;;
67556;SDS011;54387;53.526;49.300;2022-07-18T04:33:25;3.72;;;3.08;;
67556;SDS011;54387;53.526;49.300;2022-07-18T04:35:51;6.50;;;3.50;;
67556;SDS011;54387;53.526;49.300;2022-07-18T04:38:17;5.10;;;3.60;;
67556;SDS011;54387;53.526;49.300;2022-07-18T04:40:43;4.00;;;3.30;;
67556;SDS011;54387;53.526;49.300;2022-07-18T04:43:09;3.65;;;3.15;;
67556;SDS011;54387;53.526;49.300;2022-07-18T04:45:36;3.72;;;3.40;;
67556;SDS011;54387;53.526;49.300;2022-07-18T04:48:03;6.28;;;3.70;;
67556;SDS011;54387;53.526;49.300;2022-07-18T04:50:30;3.85;;;3.33;;
67556;SDS011;54387;53.526;49.300;2022-07-18T04:52:57;5.40;;;3.38;;
67556;SDS011;54387;53.526;49.300;2022-07-18T04:55:23;6.90;;;3.38;;
67556;SDS011;54387;53.526;49.300;2022-07-18T04:57:51;3.92;;;3.53;;
67556;SDS011;54387;53.526;49.300;2022-07-18T05:00:18;4.22;;;3.30;;
67556;SDS011;54387;53.526;49.300;2022-07-18T05:02:51;5.40;;;3.20;;
67556;SDS011;54387;53.526;49.300;2022-07-18T05:05:19;6.88;;;3.33;;
67556;SDS011;54387;53.526;49.300;2022-07-18T05:07:46;4.30;;;3.40;;
67556;SDS011;54387;53.526;49.300;2022-07-18T05:10:14;7.82;;;3.40;;
67556;SDS011;54387;53.526;49.300;2022-07-18T05:12:43;3.97;;;3.17;;
67556;SDS011;54387;53.526;49.300;2022-07-18T05:15:11;8.05;;;3.42;;
67556;SDS011;54387;53.526;49.300;2022-07-18T05:17:42;6.93;;;3.17;;
67556;SDS011;54387;53.526;49.300;2022-07-18T05:20:10;4.05;;;3.10;;
67556;SDS011;54387;53.526;49.300;2022-07-18T05:22:39;7.53;;;3.60;;
67556;SDS011;54387;53.526;49.300;2022-07-18T05:25:06;3.47;;;3.03;;
67556;SDS011;54387;53.526;49.300;2022-07-18T05:27:34;4.20;;;3.20;;
67556;SDS011;54387;53.526;49.300;2022-07-18T05:30:00;3.20;;;2.90;;
67556;SDS011;54387;53.526;49.300;2022-07-18T05:32:28;5.88;;;2.78;;
67556;SDS011;54387;53.526;49.300;2022-07-18T05:34:54;7.35;;;2.78;;
67556;SDS011;54387;53.526;49.300;2022-07-18T05:37:20;3.83;;;2.63;;
67556;SDS011;54387;53.526;49.300;2022-07-18T05:39:47;5.82;;;2.70;;
67556;SDS011;54387;53.526;49.300;2022-07-18T05:42:15;3.13;;;2.83;;
67556;SDS011;54387;53.526;49.300;2022-07-18T05:44:46;4.82;;;2.70;;
67556;SDS011;54387;53.526;49.300;2022-07-18T05:47:13;4.47;;;2.65;;
67556;SDS011;54387;53.526;49.300;2022-07-18T05:49:39;6.97;;;2.92;;
67556;SDS011;54387;53.526;49.300;2022-07-18T05:52:06;5.38;;;3.03;;
67556;SDS011;54387;53.526;49.300;2022-07-18T05:54:33;3.38;;;2.63;;
67556;SDS011;54387;53.526;49.300;2022-07-18T05:56:59;12.02;;;4.28;;
67556;SDS011;54387;53.526;49.300;2022-07-18T05:59:25;4.22;;;2.97;;
67556;SDS011;54387;53.526;49.300;2022-07-18T06:01:51;6.00;;;2.78;;
67556;SDS011;54387;53.526;49.300;2022-07-18T06:04:17;3.65;;;2.55;;
67556;SDS011;54387;53.526;49.300;2022-07-18T06:06:43;5.13;;;2.63;;
67556;SDS011;54387;53.526;49.300;2022-07-18T06:09:10;2.92;;;2.35;;
67556;SDS011;54387;53.526;49.300;2022-07-18T06:11:38;4.43;;;2.45;;
67556;SDS011;54387;53.526;49.300;2022-07-18T06:14:04;3.58;;;2.30;;
67556;SDS011;54387;53.526;49.300;2022-07-18T06:16:30;2.95;;;2.53;;
67556;SDS011;54387;53.526;49.300;2022-07-18T06:18:57;3.45;;;2.30;;
67556;SDS011;54387;53.526;49.300;2022-07-18T06:21:23;5.13;;;2.50;;
67556;SDS011;54387;53.526;49.300;2022-07-18T06:23:50;3.08;;;2.45;;
67556;SDS011;54387;53.526;49.300;2022-07-18T06:26:16;5.47;;;2.45;;
67556;SDS011;54387;53.526;49.300;2022-07-18T06:28:42;4.20;;;3.03;;
67556;SDS011;54387;53.526;49.300;2022-07-18T06:31:08;4.30;;;2.80;;
67556;SDS011;54387;53.526;49.300;2022-07-18T06:33:37;3.72;;;2.25;;
67556;SDS011;54387;53.526;49.300;2022-07-18T06:36:03;5.28;;;2.58;;
67556;SDS011;54387;53.526;49.300;2022-07-18T06:38:31;3.47;;;2.80;;
67556;SDS011;54387;53.526;49.300;2022-07-18T06:40:57;2.47;;;2.28;;
67556;SDS011;54387;53.526;49.300;2022-07-18T06:43:23;6.88;;;2.80;;
67556;SDS011;54387;53.526;49.300;2022-07-18T06:45:49;3.28;;;2.63;;
67556;SDS011;54387;53.526;49.300;2022-07-18T06:48:17;3.38;;;3.00;;
67556;SDS011;54387;53.526;49.300;2022-07-18T06:50:44;3.22;;;2.65;;
67556;SDS011;54387;53.526;49.300;2022-07-18T06:53:10;3.72;;;2.60;;
67556;SDS011;54387;53.526;49.300;2022-07-18T06:55:36;4.35;;;2.55;;
67556;SDS011;54387;53.526;49.300;2022-07-18T06:58:02;3.83;;;2.53;;
67556;SDS011;54387;53.526;49.300;2022-07-18T07:00:29;4.30;;;2.60;;
67556;SDS011;54387;53.526;49.300;2022-07-18T07:02:56;4.30;;;2.45;;
67556;SDS011;54387;53.526;49.300;2022-07-18T07:05:22;4.95;;;2.50;;
67556;SDS011;54387;53.526;49.300;2022-07-18T07:07:49;3.30;;;2.30;;
67556;SDS011;54387;53.526;49.300;2022-07-18T07:10:16;2.78;;;2.20;;
67556;SDS011;54387;53.526;49.300;2022-07-18T07:12:45;4.43;;;2.60;;
67556;SDS011;54387;53.526;49.300;2022-07-18T07:15:13;4.38;;;2.20;;
67556;SDS011;54387;53.526;49.300;2022-07-18T07:17:40;4.22;;;2.00;;
67556;SDS011;54387;53.526;49.300;2022-07-18T07:20:07;2.67;;;2.47;;
67556;SDS011;54387;53.526;49.300;2022-07-18T07:23:07;3.33;;;2.20;;
67556;SDS011;54387;53.526;49.300;2022-07-18T07:25:32;3.00;;;2.25;;
67556;SDS011;54387;53.526;49.300;2022-07-18T07:27:59;3.05;;;2.15;;
67556;SDS011;54387;53.526;49.300;2022-07-18T07:30:25;4.93;;;2.35;;
67556;SDS011;54387;53.526;49.300;2022-07-18T07:32:52;4.78;;;2.30;;
67556;SDS011;54387;53.526;49.300;2022-07-18T07:35:19;3.05;;;2.45;;
67556;SDS011;54387;53.526;49.300;2022-07-18T07:37:47;3.22;;;2.33;;
67556;SDS011;54387;53.526;49.300;2022-07-18T07:40:15;4.00;;;2.28;;
67556;SDS011;54387;53.526;49.300;2022-07-18T07:42:42;6.90;;;2.47;;
67556;SDS011;54387;53.526;49.300;2022-07-18T07:45:09;2.67;;;2.40;;
67556;SDS011;54387;53.526;49.300;2022-07-18T07:47:41;4.03;;;2.22;;
67556;SDS011;54387;53.526;49.300;2022-07-18T07:50:08;4.85;;;2.42;;
67556;SDS011;54387;53.526;49.300;2022-07-18T07:52:35;2.70;;;2.40;;
67556;SDS011;54387;53.526;49.300;2022-07-18T07:55:02;4.97;;;2.67;;
67556;SDS011;54387;53.526;49.300;2022-07-18T07:57:29;4.07;;;2.08;;
67556;SDS011;54387;53.526;49.300;2022-07-18T07:59:56;2.40;;;2.10;;
67556;SDS011;54387;53.526;49.300;2022-07-18T08:02:22;3.88;;;2.03;;
67556;SDS011;54387;53.526;49.300;2022-07-18T08:04:48;3.38;;;2.00;;
67556;SDS011;54387;53.526;49.300;2022-07-18T08:07:15;2.97;;;2.13;;
67556;SDS011;54387;53.526;49.300;2022-07-18T08:09:42;2.50;;;2.03;;
67556;SDS011;54387;53.526;49.300;2022-07-18T08:12:08;3.03;;;2.30;;
67556;SDS011;54387;53.526;49.300;2022-07-18T08:14:34;3.13;;;2.30;;
67556;SDS011;54387;53.526;49.300;2022-07-18T08:17:03;4.30;;;2.28;;
67556;SDS011;54387;53.526;49.300;2022-07-18T08:19:30;3.85;;;2.47;;
67556;SDS011;54387;53.526;49.300;2022-07-18T08:21:56;9.57;;;2.55;;
67556;SDS011;54387;53.526;49.300;2022-07-18T08:24:22;3.45;;;2.10;;
67556;SDS011;54387;53.526;49.300;2022-07-18T08:26:48;7.30;;;2.28;;
67556;SDS011;54387;53.526;49.300;2022-07-18T08:29:14;3.10;;;2.50;;
67556;SDS011;54387;53.526;49.300;2022-07-18T08:31:41;3.00;;;2.10;;
67556;SDS011;54387;53.526;49.300;2022-07-18T08:34:07;4.05;;;2.42;;
67556;SDS011;54387;53.526;49.300;2022-07-18T08:36:33;3.45;;;2.65;;
67556;SDS011;54387;53.526;49.300;2022-07-18T08:38:59;4.95;;;3.10;;
67556;SDS011;54387;53.526;49.300;2022-07-18T08:41:25;4.57;;;2.90;;
67556;SDS011;54387;53.526;49.300;2022-07-18T08:43:53;3.63;;;2.72;;
67556;SDS011;54387;53.526;49.300;2022-07-18T08:46:21;3.35;;;2.30;;
67556;SDS011;54387;53.526;49.300;2022-07-18T08:48:48;3.42;;;2.63;;
67556;SDS011;54387;53.526;49.300;2022-07-18T08:51:14;7.60;;;2.90;;
67556;SDS011;54387;53.526;49.300;2022-07-18T08:53:41;4.10;;;3.08;;
67556;SDS011;54387;53.526;49.300;2022-07-18T08:56:07;5.90;;;3.03;;
67556;SDS011;54387;53.526;49.300;2022-07-18T08:58:33;5.35;;;2.90;;
67556;SDS011;54387;53.526;49.300;2022-07-18T09:01:01;5.43;;;3.40;;
67556;SDS011;54387;53.526;49.300;2022-07-18T09:03:28;5.97;;;3.40;;
67556;SDS011;54387;53.526;49.300;2022-07-18T09:06:05;2.60;;;2.40;;
67556;SDS011;54387;53.526;49.300;2022-07-18T09:08:33;3.67;;;2.67;;
67556;SDS011;54387;53.526;49.300;2022-07-18T09:11:00;2.95;;;2.58;;
67556;SDS011;54387;53.526;49.300;2022-07-18T09:16:00;4.40;;;2.88;;
67556;SDS011;54387;53.526;49.300;2022-07-18T09:18:29;5.20;;;3.13;;
67556;SDS011;54387;53.526;49.300;2022-07-18T09:24:02;5.07;;;3.10;;
67556;SDS011;54387;53.526;49.300;2022-07-18T09:26:42;5.45;;;2.50;;
67556;SDS011;54387;53.526;49.300;2022-07-18T09:29:14;3.67;;;2.55;;
67556;SDS011;54387;53.526;49.300;2022-07-18T09:31:48;7.18;;;2.92;;
67556;SDS011;54387;53.526;49.300;2022-07-18T09:34:15;4.90;;;2.95;;
67556;SDS011;54387;53.526;49.300;2022-07-18T09:36:58;5.78;;;2.58;;
67556;SDS011;54387;53.526;49.300;2022-07-18T09:39:24;6.65;;;3.08;;
67556;SDS011;54387;53.526;49.300;2022-07-18T09:41:50;3.38;;;2.47;;
67556;SDS011;54387;53.526;49.300;2022-07-18T09:44:17;4.55;;;2.55;;
67556;SDS011;54387;53.526;49.300;2022-07-18T09:47:03;2.88;;;2.58;;
67556;SDS011;54387;53.526;49.300;2022-07-18T09:49:48;4.82;;;2.55;;
67556;SDS011;54387;53.526;49.300;2022-07-18T09:52:14;4.63;;;2.55;;
67556;SDS011;54387;53.526;49.300;2022-07-18T09:54:42;5.05;;;2.80;;
67556;SDS011;54387;53.526;49.300;2022-07-18T09:57:09;3.72;;;2.67;;
67556;SDS011;54387;53.526;49.300;2022-07-18T09:59:52;7.38;;;2.90;;
67556;SDS011;54387;53.526;49.300;2022-07-18T10:02:18;3.00;;;2.40;;
67556;SDS011;54387;53.526;49.300;2022-07-18T10:04:45;5.30;;;2.67;;
67556;SDS011;54387;53.526;49.300;2022-07-18T10:07:12;4.45;;;2.92;;
67556;SDS011;54387;53.526;49.300;2022-07-18T10:09:38;7.35;;;3.10;;
67556;SDS011;54387;53.526;49.300;2022-07-18T10:12:38;4.03;;;2.67;;
67556;SDS011;54387;53.526;49.300;2022-07-18T10:14:57;4.10;;;3.13;;
67556;SDS011;54387;53.526;49.300;2022-07-18T10:17:23;10.88;;;3.90;;
67556;SDS011;54387;53.526;49.300;2022-07-18T10:19:50;8.57;;;3.80;;
67556;SDS011;54387;53.526;49.300;2022-07-18T10:22:16;4.40;;;3.05;;
67556;SDS011;54387;53.526;49.300;2022-07-18T10:24:43;3.85;;;3.55;;
67556;SDS011;54387;53.526;49.300;2022-07-18T10:27:14;3.17;;;2.85;;
67556;SDS011;54387;53.526;49.300;2022-07-18T10:32:38;4.28;;;3.67;;
67556;SDS011;54387;53.526;49.300;2022-07-18T10:35:05;3.78;;;3.45;;
67556;SDS011;54387;53.526;49.300;2022-07-18T10:37:32;4.22;;;3.83;;
67556;SDS011;54387;53.526;49.300;2022-07-18T10:40:20;5.32;;;3.40;;
67556;SDS011;54387;53.526;49.300;2022-07-18T10:45:58;3.70;;;3.40;;
67556;SDS011;54387;53.526;49.300;2022-07-18T10:51:01;5.10;;;4.32;;
67556;SDS011;54387;53.526;49.300;2022-07-18T10:56:18;5.60;;;4.10;;
67556;SDS011;54387;53.526;49.300;2022-07-18T10:59:21;5.03;;;4.22;;
67556;SDS011;54387;53.526;49.300;2022-07-18T11:01:51;8.63;;;7.45;;
67556;SDS011;54387;53.526;49.300;2022-07-18T11:07:05;5.05;;;4.68;;
67556;SDS011;54387;53.526;49.300;2022-07-18T11:09:44;6.03;;;4.50;;
67556;SDS011;54387;53.526;49.300;2022-07-18T11:20:39;5.45;;;4.93;;
67556;SDS011;54387;53.526;49.300;2022-07-18T11:23:16;4.37;;;4.07;;
67556;SDS011;54387;53.526;49.300;2022-07-18T11:25:48;4.65;;;4.25;;
67556;SDS011;54387;53.526;49.300;2022-07-18T11:28:17;4.63;;;3.92;;
67556;SDS011;54387;53.526;49.300;2022-07-18T11:30:58;6.10;;;4.45;;
67556;SDS011;54387;53.526;49.300;2022-07-18T11:33:33;4.70;;;4.40;;
67556;SDS011;54387;53.526;49.300;2022-07-18T11:38:33;5.32;;;4.30;;
67556;SDS011;54387;53.526;49.300;2022-07-18T11:41:01;5.60;;;4.10;;
67556;SDS011;54387;53.526;49.300;2022-07-18T11:43:28;4.63;;;4.20;;
67556;SDS011;54387;53.526;49.300;2022-07-18T11:45:58;7.38;;;4.30;;
67556;SDS011;54387;53.526;49.300;2022-07-18T11:48:29;5.07;;;4.25;;
67556;SDS011;54387;53.526;49.300;2022-07-18T11:50:56;5.30;;;4.30;;
67556;SDS011;54387;53.526;49.300;2022-07-18T11:53:22;4.93;;;3.70;;
67556;SDS011;54387;53.526;49.300;2022-07-18T11:55:49;5.53;;;3.67;;
67556;SDS011;54387;53.526;49.300;2022-07-18T11:58:15;4.03;;;3.63;;
67556;SDS011;54387;53.526;49.300;2022-07-18T12:00:43;6.05;;;3.75;;
67556;SDS011;54387;53.526;49.300;2022-07-18T12:03:14;5.50;;;3.70;;
67556;SDS011;54387;53.526;49.300;2022-07-18T12:05:49;4.15;;;3.75;;
67556;SDS011;54387;53.526;49.300;2022-07-18T12:08:24;3.92;;;2.90;;
67556;SDS011;54387;53.526;49.300;2022-07-18T12:11:08;7.15;;;3.90;;
67556;SDS011;54387;53.526;49.300;2022-07-18T12:19:04;5.32;;;3.80;;
67556;SDS011;54387;53.526;49.300;2022-07-18T12:21:38;7.15;;;3.70;;
67556;SDS011;54387;53.526;49.300;2022-07-18T12:24:25;4.13;;;3.60;;
67556;SDS011;54387;53.526;49.300;2022-07-18T12:27:14;5.10;;;3.33;;
67556;SDS011;54387;53.526;49.300;2022-07-18T12:32:48;4.97;;;3.58;;
67556;SDS011;54387;53.526;49.300;2022-07-18T12:38:04;5.25;;;3.22;;
67556;SDS011;54387;53.526;49.300;2022-07-18T12:40:42;9.07;;;3.60;;
67556;SDS011;54387;53.526;49.300;2022-07-18T12:43:11;4.63;;;4.32;;
67556;SDS011;54387;53.526;49.300;2022-07-18T12:45:46;4.18;;;3.30;;
67556;SDS011;54387;53.526;49.300;2022-07-18T12:48:13;8.18;;;3.22;;
67556;SDS011;54387;53.526;49.300;2022-07-18T12:50:40;4.60;;;3.15;;
67556;SDS011;54387;53.526;49.300;2022-07-18T12:53:08;4.57;;;3.75;;
67556;SDS011;54387;53.526;49.300;2022-07-18T12:55:34;3.47;;;3.13;;
67556;SDS011;54387;53.526;49.300;2022-07-18T12:58:01;4.03;;;3.13;;
67556;SDS011;54387;53.526;49.300;2022-07-18T13:00:29;4.55;;;3.53;;
67556;SDS011;54387;53.526;49.300;2022-07-18T13:02:57;3.83;;;3.00;;
67556;SDS011;54387;53.526;49.300;2022-07-18T13:05:25;5.95;;;2.85;;
67556;SDS011;54387;53.526;49.300;2022-07-18T13:07:53;5.43;;;3.03;;
67556;SDS011;54387;53.526;49.300;2022-07-18T13:10:20;3.63;;;3.22;;
67556;SDS011;54387;53.526;49.300;2022-07-18T13:12:47;3.25;;;2.95;;
67556;SDS011;54387;53.526;49.300;2022-07-18T13:15:13;5.22;;;2.60;;
67556;SDS011;54387;53.526;49.300;2022-07-18T13:17:39;3.03;;;2.75;;
67556;SDS011;54387;53.526;49.300;2022-07-18T13:20:06;6.68;;;3.22;;
67556;SDS011;54387;53.526;49.300;2022-07-18T13:22:32;11.13;;;3.63;;
67556;SDS011;54387;53.526;49.300;2022-07-18T13:25:04;3.50;;;3.20;;
67556;SDS011;54387;53.526;49.300;2022-07-18T13:27:31;35.42;;;6.40;;
67556;SDS011;54387;53.526;49.300;2022-07-18T13:29:58;8.75;;;4.82;;
67556;SDS011;54387;53.526;49.300;2022-07-18T13:32:28;12.40;;;5.03;;
67556;SDS011;54387;53.526;49.300;2022-07-18T13:34:55;6.50;;;5.22;;
67556;SDS011;54387;53.526;49.300;2022-07-18T13:37:22;6.97;;;5.35;;
67556;SDS011;54387;53.526;49.300;2022-07-18T13:39:48;8.18;;;5.80;;
67556;SDS011;54387;53.526;49.300;2022-07-18T13:42:14;11.30;;;6.35;;
67556;SDS011;54387;53.526;49.300;2022-07-18T13:44:41;9.82;;;6.78;;
67556;SDS011;54387;53.526;49.300;2022-07-18T13:47:10;8.85;;;6.90;;
67556;SDS011;54387;53.526;49.300;2022-07-18T13:49:37;10.57;;;8.50;;
67556;SDS011;54387;53.526;49.300;2022-07-18T13:52:03;7.82;;;7.07;;
67556;SDS011;54387;53.526;49.300;2022-07-18T13:54:30;12.38;;;8.68;;
67556;SDS011;54387;53.526;49.300;2022-07-18T13:56:57;10.27;;;7.05;;
67556;SDS011;54387;53.526;49.300;2022-07-18T13:59:23;10.98;;;8.25;;
67556;SDS011;54387;53.526;49.300;2022-07-18T14:01:49;8.77;;;7.88;;
67556;SDS011;54387;53.526;49.300;2022-07-18T14:04:16;11.30;;;8.90;;
67556;SDS011;54387;53.526;49.300;2022-07-18T14:06:44;11.35;;;8.77;;
67556;SDS011;54387;53.526;49.300;2022-07-18T14:09:11;11.95;;;10.55;;
67556;SDS011;54387;53.526;49.300;2022-07-18T14:11:37;15.35;;;11.30;;
67556;SDS011;54387;53.526;49.300;2022-07-18T14:14:04;14.30;;;11.27;;
67556;SDS011;54387;53.526;49.300;2022-07-18T14:16:30;13.05;;;9.93;;
67556;SDS011;54387;53.526;49.300;2022-07-18T14:18:57;14.52;;;11.77;;
67556;SDS011;54387;53.526;49.300;2022-07-18T14:21:24;13.32;;;11.68;;
67556;SDS011;54387;53.526;49.300;2022-07-18T14:23:50;13.80;;;12.38;;
67556;SDS011;54387;53.526;49.300;2022-07-18T14:26:17;12.05;;;10.55;;
67556;SDS011;54387;53.526;49.300;2022-07-18T14:28:43;13.60;;;12.20;;
67556;SDS011;54387;53.526;49.300;2022-07-18T14:31:10;11.15;;;9.18;;
67556;SDS011;54387;53.526;49.300;2022-07-18T14:33:36;13.07;;;10.70;;
67556;SDS011;54387;53.526;49.300;2022-07-18T14:36:02;20.58;;;11.23;;
67556;SDS011;54387;53.526;49.300;2022-07-18T14:38:31;16.67;;;9.60;;
67556;SDS011;54387;53.526;49.300;2022-07-18T14:40:57;15.82;;;9.27;;
67556;SDS011;54387;53.526;49.300;2022-07-18T14:43:23;12.15;;;9.13;;
67556;SDS011;54387;53.526;49.300;2022-07-18T14:45:50;9.73;;;8.80;;
67556;SDS011;54387;53.526;49.300;2022-07-18T14:48:17;9.38;;;8.35;;
67556;SDS011;54387;53.526;49.300;2022-07-18T14:50:44;7.63;;;6.80;;
67556;SDS011;54387;53.526;49.300;2022-07-18T14:53:10;11.15;;;8.43;;
67556;SDS011;54387;53.526;49.300;2022-07-18T14:55:36;7.80;;;6.63;;
67556;SDS011;54387;53.526;49.300;2022-07-18T14:58:02;10.13;;;7.65;;
67556;SDS011;54387;53.526;49.300;2022-07-18T15:00:29;6.63;;;5.75;;
67556;SDS011;54387;53.526;49.300;2022-07-18T15:02:55;5.30;;;4.00;;
67556;SDS011;54387;53.526;49.300;2022-07-18T15:05:21;5.07;;;2.38;;
67556;SDS011;54387;53.526;49.300;2022-07-18T15:07:47;6.95;;;3.92;;
67556;SDS011;54387;53.526;49.300;2022-07-18T15:10:14;8.20;;;3.70;;
67556;SDS011;54387;53.526;49.300;2022-07-18T15:12:40;10.43;;;4.45;;
67556;SDS011;54387;53.526;49.300;2022-07-18T15:15:07;14.48;;;5.53;;
67556;SDS011;54387;53.526;49.300;2022-07-18T15:17:34;12.32;;;5.43;;
67556;SDS011;54387;53.526;49.300;2022-07-18T15:20:01;7.80;;;5.43;;